»·PEaware :: N7GL KSNA-KIFP

N7GL :: KSNA-KIFP

FLIGHT INFORMATION

Flight Status: Arrived
Operator: Privately registered:
United States
More flights under this callsign
Pilot: Georg L. (13308)
Aircraft: BEECH AIRCRAFT SUPER KING AIR 350
(B350)
More flights by this aircraft type
Origin: KSNA John Wayne-Orange Co
United States
Destination: KIFP Laughlin/Bullhead Intl
United States
More flights between these airports :: More routes between these airports
Route: +TRM J236 EED
File this flight plan on PilotEdge
Remarks:
Altitude:
(Current/Filed)
19,000ft
Speed:
(Current/Filed)
295kts
Departed: 11-Oct-20 11:56 AM
Arrived: 11-Oct-20 01:04 PM
Distance/Time
Traveled:
187nm/1:07
Distance/Time
To Go:
Arrived

Flight Plot

Page will automatically refresh every two minutes.

Flight plan parsing failed; only flown route is shown


Map Options




Map Legend


Flown Route
Filed Route
Departure Airport
Arrival Airport
Navaid (VOR, NDB)
Fix

Horizontal Profiles

Position Reports

Time Latitude Longitude Heading Altitude Ground
Speed
11-Oct-20 11:23 33.674088 -117.872371 31 61ft 0kts
11-Oct-20 11:24 33.674088 -117.872371 31 61ft 0kts
11-Oct-20 11:25 33.674088 -117.872371 31 61ft 0kts
11-Oct-20 11:26 33.674088 -117.872371 31 61ft 0kts
11-Oct-20 11:27 33.674088 -117.872371 31 61ft 0kts
11-Oct-20 11:28 33.674088 -117.872371 31 61ft 0kts
11-Oct-20 11:29 33.674088 -117.872371 31 61ft 0kts
11-Oct-20 11:30 33.674088 -117.872371 31 61ft 0kts
11-Oct-20 11:31 33.674088 -117.872371 31 61ft 0kts
11-Oct-20 11:32 33.674088 -117.872371 31 61ft 0kts
11-Oct-20 11:33 33.674088 -117.872371 31 61ft 0kts
11-Oct-20 11:34 33.674088 -117.872371 31 61ft 0kts
11-Oct-20 11:36 33.674088 -117.872371 31 61ft 0kts
11-Oct-20 11:37 33.674088 -117.872371 31 61ft 0kts
11-Oct-20 11:38 33.674088 -117.872371 31 61ft 0kts
11-Oct-20 11:39 33.674088 -117.872371 31 61ft 0kts
11-Oct-20 11:40 33.674088 -117.872371 31 61ft 0kts
11-Oct-20 11:41 33.674088 -117.872371 31 61ft 0kts
11-Oct-20 11:42 33.674088 -117.872371 31 61ft 0kts
11-Oct-20 11:43 33.674088 -117.872371 31 61ft 0kts
11-Oct-20 11:44 33.674088 -117.872371 31 61ft 0kts
11-Oct-20 11:45 33.674088 -117.872371 31 61ft 0kts
11-Oct-20 11:46 33.674088 -117.872371 31 61ft 0kts
11-Oct-20 11:47 33.674088 -117.872371 31 61ft 0kts
11-Oct-20 11:48 33.674090 -117.872378 31 61ft 1kts
11-Oct-20 11:49 33.674156 -117.872076 115 61ft 0kts
11-Oct-20 11:50 33.674014 -117.871464 71 61ft 11kts
11-Oct-20 11:51 33.678872 -117.868309 26 61ft 21kts
11-Oct-20 11:52 33.681253 -117.866464 118 61ft 0kts
11-Oct-20 11:52 33.681253 -117.866465 118 61ft 0kts
11-Oct-20 11:53 33.681253 -117.866465 118 61ft 0kts
11-Oct-20 11:54 33.681253 -117.866465 118 61ft 0kts
11-Oct-20 11:55 33.678259 -117.867213 208 61ft 73kts
11-Oct-20 11:56 33.647848 -117.887718 205 1679ft 140kts
11-Oct-20 11:57 33.607887 -117.895126 186 3206ft 180kts
11-Oct-20 11:58 33.556890 -117.900983 186 5119ft 205kts
11-Oct-20 11:59 33.504593 -117.906362 186 7421ft 191kts
11-Oct-20 12:00 33.475721 -117.870002 82 9263ft 193kts
11-Oct-20 12:01 33.481732 -117.806319 79 11067ft 192kts
11-Oct-20 12:02 33.487791 -117.742808 77 12692ft 193kts
11-Oct-20 12:03 33.494676 -117.670458 79 13025ft 250kts
11-Oct-20 12:04 33.501536 -117.595665 76 15311ft 195kts
11-Oct-20 12:05 33.507911 -117.529697 76 16627ft 202kts
11-Oct-20 12:06 33.514198 -117.462358 76 18136ft 205kts
11-Oct-20 12:07 33.520632 -117.393578 76 19083ft 226kts
11-Oct-20 12:08 33.528040 -117.312242 78 19069ft 267kts
11-Oct-20 12:09 33.536247 -117.220132 78 19060ft 286kts
11-Oct-20 12:10 33.544806 -117.123933 78 19056ft 294kts
11-Oct-20 12:11 33.553584 -117.025429 78 19032ft 298kts
11-Oct-20 12:12 33.562363 -116.926369 78 19007ft 300kts
11-Oct-20 12:13 33.571118 -116.826692 78 18994ft 301kts
11-Oct-20 12:14 33.579824 -116.726765 78 19024ft 300kts
11-Oct-20 12:15 33.588475 -116.626718 78 18990ft 302kts
11-Oct-20 12:16 33.597036 -116.526546 78 18970ft 302kts
11-Oct-20 12:17 33.605545 -116.425973 78 18953ft 303kts
11-Oct-20 12:18 33.613971 -116.325385 79 18943ft 303kts
11-Oct-20 12:19 33.622335 -116.224640 79 18947ft 303kts
11-Oct-20 12:20 33.647356 -116.132784 42 18948ft 284kts
11-Oct-20 12:21 33.697648 -116.059057 45 18942ft 286kts
11-Oct-20 12:22 33.748163 -115.985026 44 18943ft 286kts
11-Oct-20 12:23 33.798869 -115.911153 44 18942ft 287kts
11-Oct-20 12:24 33.849562 -115.837159 44 18939ft 287kts
11-Oct-20 12:25 33.895914 -115.769370 44 18943ft 287kts
11-Oct-20 12:26 33.946504 -115.695329 44 18963ft 286kts
11-Oct-20 12:27 33.996972 -115.621307 45 18989ft 286kts
11-Oct-20 12:28 34.047516 -115.546941 45 18984ft 287kts
11-Oct-20 12:29 34.098053 -115.472499 45 18988ft 288kts
11-Oct-20 12:30 34.148873 -115.397408 45 18988ft 290kts
11-Oct-20 12:31 34.199973 -115.321812 45 18978ft 290kts
11-Oct-20 12:32 34.251111 -115.245890 45 18973ft 291kts
11-Oct-20 12:33 34.302379 -115.169743 45 18985ft 294kts
11-Oct-20 12:34 34.354183 -115.092587 45 19029ft 296kts
11-Oct-20 12:35 34.406280 -115.014737 46 19076ft 297kts
11-Oct-20 12:36 34.458335 -114.936865 46 19123ft 298kts
11-Oct-20 12:37 34.511192 -114.857639 46 18930ft 304kts
11-Oct-20 12:38 34.563957 -114.778247 46 18920ft 302kts
11-Oct-20 12:39 34.616585 -114.698956 46 18922ft 301kts
11-Oct-20 12:40 34.668867 -114.620239 46 18922ft 298kts
11-Oct-20 12:41 34.720160 -114.542909 46 18921ft 298kts
11-Oct-20 12:42 34.791414 -114.525777 348 18930ft 276kts
11-Oct-20 12:43 34.867538 -114.540446 348 18557ft 289kts
11-Oct-20 12:44 34.950453 -114.556873 348 17127ft 312kts
11-Oct-20 12:45 35.037334 -114.574143 348 15619ft 315kts
11-Oct-20 12:46 35.122059 -114.591096 348 14091ft 301kts
11-Oct-20 12:47 35.203275 -114.607378 348 12595ft 294kts
11-Oct-20 12:48 35.283687 -114.623529 349 11101ft 293kts
11-Oct-20 12:49 35.364352 -114.639755 349 9611ft 295kts
11-Oct-20 12:50 35.445708 -114.656150 349 8126ft 298kts
11-Oct-20 12:51 35.518616 -114.685061 334 7984ft 263kts
11-Oct-20 12:52 35.582722 -114.719992 331 7980ft 239kts
11-Oct-20 12:53 35.576296 -114.776209 188 8003ft 224kts
11-Oct-20 12:54 35.538840 -114.720139 112 7747ft 240kts
11-Oct-20 12:55 35.490059 -114.670175 158 6577ft 234kts
11-Oct-20 12:56 35.430205 -114.638239 157 5553ft 235kts
11-Oct-20 12:57 35.372472 -114.607325 158 4649ft 201kts
11-Oct-20 12:58 35.325133 -114.581959 158 3533ft 172kts
11-Oct-20 12:59 35.282150 -114.568986 178 3030ft 164kts
11-Oct-20 13:00 35.237599 -114.565542 177 2097ft 142kts
11-Oct-20 13:01 35.200342 -114.563248 177 1635ft 133kts
11-Oct-20 13:02 35.166552 -114.560184 177 740ft 107kts
11-Oct-20 13:03 35.155903 -114.558294 86 706ft 5kts
11-Oct-20 13:04 35.156393 -114.558063 356 706ft 11kts
11-Oct-20 13:05 35.159551 -114.557058 86 706ft 12kts
11-Oct-20 13:06 35.160458 -114.556443 270 706ft 0kts
11-Oct-20 13:07 35.160458 -114.556443 270 706ft 0kts
11-Oct-20 13:08 35.160458 -114.556443 270 706ft 0kts

Navigation Log

Ident Type
Flight plan parsing failed, navigation log unavailable